createdAt,value
2023-05-05T00:00:14.293Z,202.67
2023-05-05T00:01:14.282Z,202.85
2023-05-05T00:02:14.331Z,202.95
2023-05-05T00:03:14.395Z,202.07
2023-05-05T00:04:14.325Z,202.63
2023-05-05T00:05:14.259Z,202.10
2023-05-05T00:06:14.280Z,201.90
2023-05-05T00:07:14.309Z,202.09
2023-05-05T00:08:14.265Z,203.21
2023-05-05T00:09:14.267Z,202.88
2023-05-05T00:10:14.296Z,201.71
2023-05-05T00:11:14.325Z,202.99
2023-05-05T00:12:14.275Z,204.03
2023-05-05T00:13:14.325Z,205.15
2023-05-05T00:14:14.314Z,202.66
2023-05-05T00:15:14.339Z,204.14
2023-05-05T00:16:14.309Z,202.92
2023-05-05T00:17:14.426Z,202.98
2023-05-05T00:18:14.284Z,204.17
2023-05-05T00:19:14.336Z,203.62
2023-05-05T00:20:14.331Z,203.42
2023-05-05T00:21:14.285Z,204.33
2023-05-05T00:22:14.305Z,204.00
2023-05-05T00:23:14.332Z,204.60
2023-05-05T00:24:14.298Z,205.06
2023-05-05T00:25:14.311Z,202.97
2023-05-05T00:26:14.332Z,201.52
2023-05-05T00:27:14.313Z,203.73
2023-05-05T00:28:14.361Z,205.02
2023-05-05T00:29:14.331Z,204.63
2023-05-05T00:30:14.358Z,203.70
2023-05-05T00:31:14.415Z,205.07
2023-05-05T00:32:14.339Z,204.63
2023-05-05T00:33:14.334Z,204.90
2023-05-05T00:34:14.353Z,205.57
2023-05-05T00:35:14.346Z,203.75
2023-05-05T00:36:14.372Z,205.89
2023-05-05T00:37:14.378Z,205.70
2023-05-05T00:38:14.379Z,206.12
2023-05-05T00:39:14.403Z,205.54
2023-05-05T00:40:14.394Z,206.43
2023-05-05T00:41:14.413Z,206.89
2023-05-05T00:42:14.424Z,205.83
2023-05-05T00:43:14.397Z,205.38
2023-05-05T00:44:14.411Z,205.00
2023-05-05T00:45:14.429Z,203.54
2023-05-05T00:46:14.568Z,204.98
2023-05-05T00:47:14.433Z,205.23
2023-05-05T00:48:14.445Z,204.23
2023-05-05T00:49:14.489Z,205.73
2023-05-05T00:50:14.445Z,207.68
2023-05-05T00:51:14.466Z,206.79
2023-05-05T00:52:14.468Z,204.97
2023-05-05T00:53:14.478Z,206.23
2023-05-05T00:54:14.453Z,205.94
2023-05-05T00:55:14.478Z,205.72
2023-05-05T00:56:14.484Z,205.40
2023-05-05T00:57:14.518Z,207.92
2023-05-05T00:58:14.494Z,204.61
2023-05-05T00:59:14.512Z,206.59
2023-05-05T01:00:14.543Z,207.30
2023-05-05T01:01:14.542Z,207.08
2023-05-05T01:02:14.538Z,205.67
2023-05-05T01:03:14.549Z,207.07
2023-05-05T01:04:14.521Z,206.07
2023-05-05T01:05:14.521Z,204.65
2023-05-05T01:06:14.544Z,203.88
2023-05-05T01:07:14.531Z,207.99
2023-05-05T01:08:14.538Z,206.21
2023-05-05T01:09:14.550Z,207.83
2023-05-05T01:10:20.192Z,208.04
2023-05-05T01:11:15.542Z,208.08
2023-05-05T01:12:14.556Z,208.24
2023-05-05T01:13:14.565Z,207.88
2023-05-05T01:14:14.518Z,207.03
2023-05-05T01:15:14.501Z,206.32
2023-05-05T01:16:14.526Z,207.44
2023-05-05T01:17:14.495Z,207.56
2023-05-05T01:18:14.487Z,206.09
2023-05-05T01:19:14.483Z,205.95
2023-05-05T01:20:14.488Z,207.43
2023-05-05T01:21:14.454Z,206.07
2023-05-05T01:22:14.460Z,207.11
2023-05-05T01:23:14.439Z,207.22
2023-05-05T01:24:14.426Z,207.57
2023-05-05T01:25:14.432Z,208.27
2023-05-05T01:26:14.425Z,207.49
2023-05-05T01:27:14.466Z,206.33
2023-05-05T01:28:14.416Z,207.56
2023-05-05T01:29:14.393Z,208.15
2023-05-05T01:30:14.417Z,206.55
2023-05-05T01:31:14.394Z,205.83
2023-05-05T01:32:14.393Z,207.01
2023-05-05T01:33:14.365Z,207.75
2023-05-05T01:34:14.370Z,205.13
2023-05-05T01:35:14.348Z,204.69
2023-05-05T01:36:14.353Z,207.05
2023-05-05T01:37:14.338Z,207.33
2023-05-05T01:38:14.377Z,205.19
2023-05-05T01:39:14.372Z,205.35
2023-05-05T01:40:14.342Z,206.92
2023-05-05T01:41:14.299Z,210.24
2023-05-05T01:42:14.340Z,209.21
2023-05-05T01:43:14.342Z,206.75
2023-05-05T01:44:14.349Z,205.92
2023-05-05T01:45:14.373Z,207.23
2023-05-05T01:46:14.476Z,206.98
2023-05-05T01:47:14.381Z,208.67
2023-05-05T01:48:14.425Z,207.10
2023-05-05T01:49:14.443Z,208.78
2023-05-05T01:50:14.433Z,207.12
2023-05-05T01:51:14.498Z,209.11
2023-05-05T01:52:14.464Z,208.59
2023-05-05T01:53:14.495Z,206.43
2023-05-05T01:54:14.502Z,209.20
2023-05-05T01:55:14.503Z,208.75
2023-05-05T01:56:14.527Z,208.40
2023-05-05T01:57:14.537Z,207.35
2023-05-05T01:58:14.573Z,207.84
2023-05-05T01:59:14.595Z,207.28
2023-05-05T02:00:14.572Z,208.63
2023-05-05T02:01:14.614Z,208.28
2023-05-05T02:02:14.597Z,209.08
2023-05-05T02:03:14.797Z,205.90
2023-05-05T02:04:14.650Z,208.67
2023-05-05T02:05:14.635Z,209.75
2023-05-05T02:06:14.666Z,210.71
2023-05-05T02:07:14.691Z,207.73
2023-05-05T02:08:14.707Z,210.16
2023-05-05T02:09:14.691Z,209.59
2023-05-05T02:10:14.719Z,208.79
2023-05-05T02:11:14.757Z,206.18
2023-05-05T02:12:14.764Z,207.77
2023-05-05T02:13:14.962Z,209.01
2023-05-05T02:14:14.763Z,210.35
2023-05-05T02:15:14.796Z,209.59
2023-05-05T02:16:14.921Z,208.11
2023-05-05T02:17:14.834Z,207.90
2023-05-05T02:18:14.834Z,208.67
2023-05-05T02:19:14.818Z,207.97
2023-05-05T02:20:14.843Z,207.08
2023-05-05T02:21:14.869Z,208.60
2023-05-05T02:22:14.858Z,210.54
2023-05-05T02:23:14.880Z,210.15
2023-05-05T02:24:14.893Z,208.65
2023-05-05T02:25:14.937Z,208.49
2023-05-05T02:26:14.917Z,209.76
2023-05-05T02:27:14.968Z,208.84
2023-05-05T02:28:14.970Z,210.31
2023-05-05T02:29:14.962Z,208.92
2023-05-05T02:30:14.989Z,209.92
2023-05-05T02:31:15.025Z,208.57
2023-05-05T02:32:15.005Z,208.59
2023-05-05T02:33:15.022Z,209.74
2023-05-05T02:34:15.044Z,209.32
2023-05-05T02:35:15.060Z,211.07
2023-05-05T02:36:15.081Z,207.54
2023-05-05T02:37:15.092Z,212.05
2023-05-05T02:38:15.135Z,209.70
2023-05-05T02:39:15.141Z,209.78
2023-05-05T02:40:15.150Z,208.93
2023-05-05T02:41:15.183Z,208.35
2023-05-05T02:42:15.177Z,208.86
2023-05-05T02:43:15.259Z,208.89
2023-05-05T02:44:15.219Z,207.45
2023-05-05T02:45:15.266Z,208.18
2023-05-05T02:46:15.299Z,208.14
2023-05-05T02:47:15.290Z,209.97
2023-05-05T02:48:15.302Z,210.37
2023-05-05T02:49:15.313Z,209.80
2023-05-05T02:50:15.347Z,209.01
2023-05-05T02:51:15.351Z,205.84
2023-05-05T02:52:15.364Z,208.49
2023-05-05T02:53:15.391Z,208.03
2023-05-05T02:54:15.393Z,210.19
2023-05-05T02:55:15.429Z,208.36
2023-05-05T02:56:15.444Z,208.41
2023-05-05T02:57:15.442Z,208.70
2023-05-05T02:58:15.489Z,210.22
2023-05-05T02:59:16.366Z,208.31
2023-05-05T03:00:15.510Z,210.45
2023-05-05T03:01:15.567Z,208.42
2023-05-05T03:02:15.572Z,208.97
2023-05-05T03:03:15.697Z,208.50
2023-05-05T03:04:15.602Z,209.55
2023-05-05T03:05:15.606Z,207.80
2023-05-05T03:06:15.646Z,207.88
2023-05-05T03:07:15.647Z,210.44
2023-05-05T03:08:15.695Z,212.13
2023-05-05T03:09:15.718Z,209.08
2023-05-05T03:10:15.725Z,211.42
2023-05-05T03:11:15.739Z,209.20
2023-05-05T03:12:15.788Z,209.36
2023-05-05T03:13:15.826Z,209.37
2023-05-05T03:14:15.811Z,209.45
2023-05-05T03:15:15.841Z,207.87
2023-05-05T03:16:15.909Z,207.71
2023-05-05T03:17:15.884Z,206.31
2023-05-05T03:18:15.900Z,209.83
2023-05-05T03:19:15.937Z,207.85
2023-05-05T03:20:15.962Z,212.36
2023-05-05T03:21:16.030Z,212.39
2023-05-05T03:22:16.025Z,206.59
2023-05-05T03:23:16.046Z,206.51
2023-05-05T03:24:16.044Z,207.81
2023-05-05T03:25:16.065Z,209.83
2023-05-05T03:26:16.094Z,207.91
2023-05-05T03:27:16.122Z,207.95
2023-05-05T03:28:16.154Z,209.78
2023-05-05T03:29:16.177Z,209.26
2023-05-05T03:30:16.216Z,208.55
2023-05-05T03:31:16.276Z,208.85
2023-05-05T03:32:16.359Z,209.50
2023-05-05T03:33:16.302Z,210.05
2023-05-05T03:34:16.305Z,208.16
2023-05-05T03:35:16.313Z,211.12
2023-05-05T03:36:16.361Z,207.47
2023-05-05T03:37:16.377Z,208.12
2023-05-05T03:38:16.412Z,206.01
2023-05-05T03:39:16.440Z,210.97
2023-05-05T03:40:16.457Z,207.46
2023-05-05T03:41:16.487Z,208.34
2023-05-05T03:42:16.498Z,208.63
2023-05-05T03:43:16.568Z,208.67
2023-05-05T03:44:16.557Z,206.71
2023-05-05T03:45:16.594Z,210.26
2023-05-05T03:46:16.655Z,209.14
2023-05-05T03:47:16.633Z,208.56
2023-05-05T03:48:16.650Z,207.39
2023-05-05T03:49:16.681Z,208.35
2023-05-05T03:50:16.753Z,209.01
2023-05-05T03:51:16.715Z,205.57
2023-05-05T03:52:16.749Z,210.07
2023-05-05T03:53:16.861Z,207.41
2023-05-05T03:54:16.830Z,206.86
2023-05-05T03:55:16.846Z,208.99
2023-05-05T03:56:16.893Z,211.27
2023-05-05T03:57:16.926Z,209.88
2023-05-05T03:58:16.957Z,208.38
2023-05-05T03:59:16.967Z,207.65
2023-05-05T04:00:17.028Z,208.82
2023-05-05T04:01:17.045Z,210.07
2023-05-05T04:02:18.615Z,208.74
2023-05-05T04:03:17.219Z,208.03
2023-05-05T04:04:17.134Z,208.95
2023-05-05T04:05:17.144Z,208.05
2023-05-05T04:06:17.193Z,209.49
2023-05-05T04:07:17.231Z,208.67
2023-05-05T04:08:17.224Z,208.22
2023-05-05T04:09:17.257Z,210.37
2023-05-05T04:10:17.300Z,207.46
2023-05-05T04:11:17.298Z,208.24
2023-05-05T04:12:17.331Z,208.69
2023-05-05T04:13:17.389Z,206.88
2023-05-05T04:14:17.400Z,208.28
2023-05-05T04:15:17.430Z,208.05
2023-05-05T04:16:17.456Z,210.07
2023-05-05T04:17:17.507Z,207.83
2023-05-05T04:18:17.542Z,208.35
2023-05-05T04:19:17.551Z,207.77
2023-05-05T04:20:17.572Z,206.94
2023-05-05T04:21:17.601Z,206.98
2023-05-05T04:22:17.630Z,206.79
2023-05-05T04:23:17.699Z,207.69
2023-05-05T04:24:17.685Z,209.04
2023-05-05T04:25:17.732Z,208.76
2023-05-05T04:26:17.788Z,208.36
2023-05-05T04:27:17.810Z,205.35
2023-05-05T04:28:19.660Z,208.01
2023-05-05T04:29:17.834Z,212.70
2023-05-05T04:30:17.813Z,209.62
2023-05-05T04:31:17.799Z,208.41
2023-05-05T04:32:17.773Z,209.96
2023-05-05T04:33:17.806Z,205.97
2023-05-05T04:34:17.782Z,205.32
2023-05-05T04:35:17.759Z,208.19
2023-05-05T04:36:17.767Z,209.79
2023-05-05T04:37:17.754Z,205.52
2023-05-05T04:38:17.777Z,206.97
2023-05-05T04:39:17.746Z,208.32
2023-05-05T04:40:17.745Z,208.51
2023-05-05T04:41:17.758Z,205.08
2023-05-05T04:42:17.732Z,206.09
2023-05-05T04:43:17.704Z,208.04
2023-05-05T04:44:17.682Z,208.23
2023-05-05T04:45:17.692Z,208.43
2023-05-05T04:46:17.705Z,209.06
2023-05-05T04:47:17.691Z,207.36
2023-05-05T04:48:17.654Z,207.18
2023-05-05T04:49:17.667Z,207.00
2023-05-05T04:50:17.680Z,205.88
2023-05-05T04:51:17.638Z,203.77
2023-05-05T04:52:17.649Z,206.53
2023-05-05T04:53:17.637Z,205.43
2023-05-05T04:54:17.639Z,208.31
2023-05-05T04:55:17.604Z,207.15
2023-05-05T04:56:17.628Z,205.22
2023-05-05T04:57:17.594Z,204.78
2023-05-05T04:58:17.615Z,203.93
2023-05-05T04:59:17.598Z,206.34
2023-05-05T05:00:17.602Z,205.35
2023-05-05T05:01:17.579Z,201.07
2023-05-05T05:02:17.610Z,201.70
2023-05-05T05:03:17.628Z,203.69
2023-05-05T05:04:17.541Z,203.46
2023-05-05T05:05:17.554Z,203.33
2023-05-05T05:06:17.541Z,204.84
2023-05-05T05:07:17.524Z,200.80
2023-05-05T05:08:17.573Z,199.65
2023-05-05T05:09:17.523Z,203.98
2023-05-05T05:10:17.534Z,202.70
2023-05-05T05:11:17.519Z,203.49
2023-05-05T05:12:17.531Z,204.10
2023-05-05T05:13:17.702Z,201.76
2023-05-05T05:14:17.522Z,203.17
2023-05-05T05:15:17.478Z,199.04
2023-05-05T05:16:17.504Z,202.22
2023-05-05T05:17:17.482Z,200.56
2023-05-05T05:18:17.493Z,199.82
2023-05-05T05:19:17.483Z,200.67
2023-05-05T05:20:17.467Z,200.24
2023-05-05T05:21:17.430Z,200.38
2023-05-05T05:22:17.434Z,198.72
2023-05-05T05:23:17.456Z,200.37
2023-05-05T05:24:17.421Z,197.43
2023-05-05T05:25:17.417Z,195.74
2023-05-05T05:26:17.647Z,197.81
2023-05-05T05:27:17.441Z,199.63
2023-05-05T05:28:17.383Z,198.28
2023-05-05T05:29:17.449Z,198.04
2023-05-05T05:30:17.401Z,198.62
2023-05-05T05:31:17.488Z,197.85
2023-05-05T05:32:17.403Z,200.70
2023-05-05T05:33:17.355Z,197.80
2023-05-05T05:34:17.532Z,201.57
2023-05-05T05:35:17.394Z,209.33
2023-05-05T05:36:17.669Z,201.13
2023-05-05T05:37:17.366Z,194.88
2023-05-05T05:38:17.351Z,196.59
2023-05-05T05:39:17.594Z,200.39
2023-05-05T05:40:17.370Z,206.34
2023-05-05T05:41:17.381Z,211.56
2023-05-05T05:42:17.415Z,214.22
2023-05-05T05:43:17.499Z,214.09
2023-05-05T05:44:17.383Z,216.88
2023-05-05T05:45:17.467Z,220.82
2023-05-05T05:46:17.561Z,223.21
2023-05-05T05:47:17.554Z,228.61
2023-05-05T05:48:17.658Z,221.99
2023-05-05T05:49:17.677Z,221.40
2023-05-05T05:50:17.734Z,223.27
2023-05-05T05:51:17.862Z,223.93
2023-05-05T05:52:17.873Z,222.11
2023-05-05T05:53:17.967Z,223.89
2023-05-05T05:54:17.992Z,222.38
2023-05-05T05:55:18.094Z,218.08
2023-05-05T05:56:18.143Z,222.18
2023-05-05T05:57:18.207Z,218.73
2023-05-05T05:58:18.230Z,219.72
2023-05-05T05:59:18.305Z,220.31
2023-05-05T06:00:18.375Z,219.02
2023-05-05T06:01:18.424Z,215.23
2023-05-05T06:02:18.543Z,213.95
2023-05-05T06:03:18.743Z,215.13
2023-05-05T06:04:18.624Z,212.73
2023-05-05T06:05:18.691Z,210.99
2023-05-05T06:06:19.206Z,210.62
2023-05-05T06:07:18.799Z,209.00
2023-05-05T06:08:19.185Z,211.41
2023-05-05T06:09:18.885Z,209.13
2023-05-05T06:10:27.887Z,208.12
2023-05-05T06:11:19.972Z,208.28
2023-05-05T06:12:18.918Z,208.46
2023-05-05T06:13:18.933Z,208.92
2023-05-05T06:14:20.152Z,206.59
2023-05-05T06:15:18.914Z,206.57
2023-05-05T06:16:18.944Z,205.76
2023-05-05T06:17:18.898Z,204.43
2023-05-05T06:18:18.940Z,202.89
2023-05-05T06:19:18.873Z,199.96
2023-05-05T06:20:18.857Z,202.48
2023-05-05T06:21:18.952Z,202.45
2023-05-05T06:22:18.874Z,199.25
2023-05-05T06:23:18.874Z,194.28
2023-05-05T06:24:18.877Z,199.58
2023-05-05T06:25:18.952Z,194.14
2023-05-05T06:26:18.960Z,196.60
2023-05-05T06:27:18.978Z,192.13
2023-05-05T06:28:19.168Z,191.15
2023-05-05T06:29:19.038Z,188.03
2023-05-05T06:30:19.119Z,182.53
2023-05-05T06:31:19.143Z,178.37
2023-05-05T06:32:19.108Z,185.71
2023-05-05T06:33:19.147Z,181.78
2023-05-05T06:34:19.187Z,180.61
2023-05-05T06:35:19.204Z,176.30
2023-05-05T06:36:19.232Z,179.36
2023-05-05T06:37:19.236Z,171.21
2023-05-05T06:38:19.659Z,180.69
2023-05-05T06:39:19.272Z,182.59
2023-05-05T06:40:19.293Z,183.48
2023-05-05T06:41:19.302Z,183.47
2023-05-05T06:42:19.313Z,175.09
2023-05-05T06:43:19.352Z,171.12
2023-05-05T06:44:19.319Z,173.42
2023-05-05T06:45:19.336Z,174.76
2023-05-05T06:46:19.364Z,169.69
2023-05-05T06:47:19.699Z,171.11
2023-05-05T06:48:19.353Z,169.49
2023-05-05T06:49:19.386Z,176.46
2023-05-05T06:50:19.364Z,170.48
2023-05-05T06:51:19.439Z,171.91
2023-05-05T06:52:19.451Z,173.84
2023-05-05T06:53:19.399Z,169.51
2023-05-05T06:54:19.493Z,164.85
2023-05-05T06:55:19.402Z,167.14
2023-05-05T06:56:19.476Z,168.72
2023-05-05T06:57:19.418Z,159.34
2023-05-05T06:58:19.415Z,170.12
2023-05-05T06:59:19.413Z,156.87
2023-05-05T07:00:19.447Z,157.41
2023-05-05T07:01:19.612Z,149.73
2023-05-05T07:02:19.476Z,154.75
2023-05-05T07:03:19.627Z,146.66
2023-05-05T07:04:19.550Z,146.04
2023-05-05T07:05:19.441Z,144.22
2023-05-05T07:06:19.447Z,137.44
2023-05-05T07:07:19.471Z,145.93
2023-05-05T07:08:19.470Z,136.90
2023-05-05T07:09:19.504Z,134.40
2023-05-05T07:10:19.466Z,131.24
2023-05-05T07:11:19.495Z,128.07
2023-05-05T07:12:19.558Z,126.22
2023-05-05T07:13:19.690Z,123.60
2023-05-05T07:14:20.955Z,119.52
2023-05-05T07:15:28.769Z,126.36
2023-05-05T07:16:20.600Z,126.49
2023-05-05T07:17:19.544Z,124.00
2023-05-05T07:18:19.557Z,118.27
2023-05-05T07:19:19.535Z,106.82
2023-05-05T07:20:19.615Z,107.00
2023-05-05T07:21:19.564Z,100.20
2023-05-05T07:22:19.555Z,93.04
2023-05-05T07:23:19.517Z,89.31
2023-05-05T07:24:19.550Z,92.05
2023-05-05T07:25:19.514Z,84.72
2023-05-05T07:26:19.558Z,87.40
2023-05-05T07:27:19.492Z,83.93
2023-05-05T07:28:19.568Z,78.56
2023-05-05T07:29:19.775Z,80.76
2023-05-05T07:30:19.980Z,82.71
2023-05-05T07:31:19.690Z,59.14
2023-05-05T07:32:19.730Z,45.55
2023-05-05T07:33:19.740Z,51.78
2023-05-05T07:34:19.710Z,45.91
2023-05-05T07:35:19.682Z,51.02
2023-05-05T07:36:19.657Z,37.79
2023-05-05T07:37:19.664Z,57.69
2023-05-05T07:38:19.652Z,75.58
2023-05-05T07:39:19.685Z,87.63
2023-05-05T07:40:19.682Z,83.58
2023-05-05T07:41:19.667Z,106.01
2023-05-05T07:42:19.737Z,115.98
2023-05-05T07:43:19.718Z,119.03
2023-05-05T07:44:19.766Z,133.67
2023-05-05T07:45:19.788Z,136.89
2023-05-05T07:46:19.871Z,149.99
2023-05-05T07:47:20.079Z,148.39
2023-05-05T07:48:19.920Z,159.39
2023-05-05T07:49:19.994Z,167.85
2023-05-05T07:50:20.078Z,166.40
2023-05-05T07:51:20.154Z,175.76
2023-05-05T07:52:25.246Z,182.32
2023-05-05T07:53:21.141Z,182.89
2023-05-05T07:54:20.124Z,185.76
2023-05-05T07:55:20.149Z,187.73
2023-05-05T07:56:21.768Z,199.37
2023-05-05T07:57:20.142Z,218.20
2023-05-05T07:58:20.102Z,221.99
2023-05-05T07:59:20.113Z,223.78
2023-05-05T08:00:20.194Z,229.21
2023-05-05T08:01:20.144Z,232.49
2023-05-05T08:02:20.111Z,233.27
2023-05-05T08:03:20.264Z,236.09
2023-05-05T08:04:20.133Z,238.01
2023-05-05T08:05:20.045Z,236.14
2023-05-05T08:06:20.094Z,238.96
2023-05-05T08:07:20.115Z,239.72
2023-05-05T08:08:20.137Z,248.03
2023-05-05T08:09:20.178Z,248.47
2023-05-05T08:10:20.188Z,246.79
2023-05-05T08:11:20.297Z,241.72
2023-05-05T08:12:20.207Z,246.02
2023-05-05T08:13:20.548Z,247.58
2023-05-05T08:14:20.269Z,248.66
2023-05-05T08:15:20.290Z,241.81
2023-05-05T08:16:20.530Z,242.04
2023-05-05T08:17:20.345Z,236.41
2023-05-05T08:18:20.340Z,237.82
2023-05-05T08:19:28.615Z,232.27
2023-05-05T08:20:21.366Z,232.27
2023-05-05T08:21:20.328Z,225.25
2023-05-05T08:22:20.337Z,232.04
2023-05-05T08:23:20.304Z,239.67
2023-05-05T08:24:20.303Z,257.39
2023-05-05T08:25:20.354Z,249.43
2023-05-05T08:26:20.285Z,250.00
2023-05-05T08:27:20.315Z,224.80
2023-05-05T08:28:20.275Z,206.84
2023-05-05T08:29:20.279Z,187.21
2023-05-05T08:30:20.255Z,171.82
2023-05-05T08:31:27.425Z,156.22
2023-05-05T08:32:20.295Z,148.90
2023-05-05T08:33:20.269Z,130.57
2023-05-05T08:34:20.300Z,123.52
2023-05-05T08:35:20.268Z,116.12
2023-05-05T08:36:20.245Z,107.67
2023-05-05T08:37:20.231Z,107.76
2023-05-05T08:38:20.252Z,96.67
2023-05-05T08:39:20.289Z,83.87
2023-05-05T08:40:20.207Z,76.11
2023-05-05T08:41:20.194Z,52.47
2023-05-05T08:42:35.560Z,25.43
2023-05-05T08:43:21.184Z,25.98
2023-05-05T08:44:20.272Z,28.29
2023-05-05T08:45:20.163Z,23.36
2023-05-05T08:46:20.236Z,12.78
2023-05-05T08:47:20.212Z,11.00
2023-05-05T08:48:20.147Z,37.00
2023-05-05T08:49:20.135Z,57.92
2023-05-05T08:50:20.166Z,67.39
2023-05-05T08:51:20.134Z,71.68
2023-05-05T08:52:20.148Z,86.66
2023-05-05T08:53:20.144Z,98.27
2023-05-05T08:54:20.114Z,102.15
2023-05-05T08:55:20.087Z,110.89
2023-05-05T08:56:20.086Z,120.42
2023-05-05T08:57:20.076Z,117.72
2023-05-05T08:58:20.087Z,123.72
2023-05-05T08:59:20.112Z,129.64
2023-05-05T09:00:20.099Z,137.33
2023-05-05T09:01:20.127Z,147.66
2023-05-05T09:02:20.217Z,147.75
2023-05-05T09:03:20.278Z,145.51
2023-05-05T09:04:20.174Z,144.07
2023-05-05T09:05:20.203Z,135.88
2023-05-05T09:06:20.210Z,117.31
2023-05-05T09:07:20.242Z,124.49
2023-05-05T09:08:20.247Z,129.49
2023-05-05T09:09:20.279Z,131.87
2023-05-05T09:10:20.331Z,131.26
2023-05-05T09:11:20.316Z,140.68
2023-05-05T09:12:20.335Z,137.56
2023-05-05T09:13:20.407Z,134.98
2023-05-05T09:14:20.361Z,134.54
2023-05-05T09:15:20.381Z,139.83
2023-05-05T09:16:20.429Z,135.78
2023-05-05T09:17:20.409Z,134.34
2023-05-05T09:18:20.415Z,127.67
2023-05-05T09:19:20.450Z,131.32
2023-05-05T09:20:20.432Z,136.52
2023-05-05T09:21:20.452Z,145.32
2023-05-05T09:22:20.441Z,133.87
2023-05-05T09:23:20.466Z,116.46
2023-05-05T09:24:20.485Z,97.74
2023-05-05T09:25:20.484Z,82.95
2023-05-05T09:26:20.485Z,102.66
2023-05-05T09:27:20.500Z,117.72
2023-05-05T09:28:20.517Z,126.97
2023-05-05T09:29:20.545Z,200.80
2023-05-05T09:30:20.583Z,231.85
2023-05-05T09:31:20.573Z,236.01
2023-05-05T09:32:20.541Z,196.26
2023-05-05T09:33:20.629Z,188.45
2023-05-05T09:34:20.580Z,177.54
2023-05-05T09:35:20.697Z,174.18
2023-05-05T09:36:20.565Z,134.50
2023-05-05T09:37:20.586Z,88.12
2023-05-05T09:38:20.601Z,41.17
2023-05-05T09:39:20.632Z,24.84
2023-05-05T09:40:20.729Z,34.14
2023-05-05T09:41:20.669Z,63.49
2023-05-05T09:42:20.672Z,56.65
2023-05-05T09:43:20.666Z,64.75
2023-05-05T09:44:20.811Z,17.88
2023-05-05T09:45:20.724Z,46.38
2023-05-05T09:46:20.788Z,30.92
2023-05-05T09:47:29.355Z,30.24
2023-05-05T09:48:21.762Z,30.93
2023-05-05T09:49:20.754Z,37.03
2023-05-05T09:50:20.886Z,21.93
2023-05-05T09:51:20.745Z,0.00
2023-05-05T09:52:20.680Z,0.00
2023-05-05T09:53:20.687Z,0.00
2023-05-05T09:54:20.683Z,0.00
2023-05-05T09:55:20.656Z,0.00
2023-05-05T09:56:20.655Z,25.94
2023-05-05T09:57:20.654Z,26.74
2023-05-05T09:58:20.717Z,79.14
2023-05-05T09:59:20.696Z,103.46
2023-05-05T10:00:20.665Z,80.73
2023-05-05T10:01:20.686Z,48.71
2023-05-05T10:02:20.636Z,41.06
2023-05-05T10:03:20.606Z,37.16
2023-05-05T10:04:20.891Z,31.67
2023-05-05T10:05:20.688Z,44.17
2023-05-05T10:06:20.602Z,30.39
2023-05-05T10:07:20.618Z,43.02
2023-05-05T10:08:20.606Z,81.52
2023-05-05T10:09:20.602Z,72.11
2023-05-05T10:10:20.573Z,91.42
2023-05-05T10:11:20.564Z,90.84
2023-05-05T10:12:20.539Z,73.43
2023-05-05T10:13:20.552Z,44.11
2023-05-05T10:14:20.598Z,32.44
2023-05-05T10:15:20.580Z,31.48
2023-05-05T10:16:20.623Z,37.35
2023-05-05T10:17:20.708Z,63.46
2023-05-05T10:18:21.421Z,55.29
2023-05-05T10:19:20.714Z,73.97
2023-05-05T10:20:20.671Z,83.35
2023-05-05T10:21:20.725Z,94.44
2023-05-05T10:22:20.805Z,101.23
2023-05-05T10:23:21.180Z,114.59
2023-05-05T10:24:20.717Z,127.75
2023-05-05T10:25:20.872Z,182.55
2023-05-05T10:26:20.851Z,237.27
2023-05-05T10:27:20.778Z,216.68
2023-05-05T10:28:21.025Z,144.54
2023-05-05T10:29:20.776Z,136.06
2023-05-05T10:30:20.803Z,102.21
2023-05-05T10:31:26.493Z,61.64
2023-05-05T10:34:20.932Z,0.00
2023-05-05T10:35:20.834Z,2.56
2023-05-05T10:36:20.824Z,29.75
2023-05-05T10:37:20.800Z,41.36
2023-05-05T10:38:20.801Z,42.63
2023-05-05T10:39:20.818Z,47.89
2023-05-05T10:40:20.773Z,59.94
2023-05-05T10:41:20.751Z,52.88
2023-05-05T10:42:20.732Z,58.57
2023-05-05T10:43:20.808Z,51.60
2023-05-05T10:44:20.738Z,33.61
2023-05-05T10:45:20.860Z,32.30
2023-05-05T10:46:20.770Z,58.91
2023-05-05T10:47:20.705Z,84.59
2023-05-05T10:48:20.746Z,100.09
2023-05-05T10:49:20.712Z,105.94
2023-05-05T10:50:20.809Z,104.53
2023-05-05T10:51:31.109Z,110.22
2023-05-05T10:52:21.695Z,110.53
2023-05-05T10:53:20.688Z,110.69
2023-05-05T10:54:20.741Z,113.42
2023-05-05T10:55:20.761Z,113.26
2023-05-05T10:56:20.652Z,116.87
2023-05-05T10:57:20.652Z,105.05
2023-05-05T10:58:20.650Z,107.29
2023-05-05T10:59:20.627Z,107.71
2023-05-05T11:00:20.629Z,112.14
2023-05-05T11:01:20.694Z,117.74
2023-05-05T11:02:20.604Z,120.42
2023-05-05T11:03:20.659Z,123.24
2023-05-05T11:04:20.597Z,115.71
2023-05-05T11:05:20.663Z,111.21
2023-05-05T11:06:20.598Z,115.01
2023-05-05T11:07:20.621Z,118.75
2023-05-05T11:08:20.580Z,136.22
2023-05-05T11:09:20.603Z,155.03
2023-05-05T11:10:20.872Z,142.47
2023-05-05T11:11:20.613Z,157.43
2023-05-05T11:12:20.594Z,166.08
2023-05-05T11:13:20.539Z,174.90
2023-05-05T11:14:20.521Z,187.13
2023-05-05T11:15:20.515Z,176.94
2023-05-05T11:16:20.535Z,174.45
2023-05-05T11:17:20.498Z,158.83
2023-05-05T11:18:20.526Z,162.25
2023-05-05T11:19:20.484Z,184.74
2023-05-05T11:20:20.526Z,197.59
2023-05-05T11:21:20.489Z,205.68
2023-05-05T11:22:20.501Z,210.15
2023-05-05T11:23:20.509Z,211.98
2023-05-05T11:24:20.472Z,214.10
2023-05-05T11:25:20.491Z,216.66
2023-05-05T11:26:20.452Z,215.80
2023-05-05T11:27:20.542Z,218.12
2023-05-05T11:28:20.444Z,217.84
2023-05-05T11:29:20.452Z,218.15
2023-05-05T11:30:20.427Z,220.04
2023-05-05T11:31:20.449Z,215.64
2023-05-05T11:32:20.407Z,213.56
2023-05-05T11:33:20.843Z,213.97
2023-05-05T11:34:20.404Z,219.18
2023-05-05T11:35:20.400Z,219.80
2023-05-05T11:36:20.377Z,221.31
2023-05-05T11:37:20.363Z,219.36
2023-05-05T11:38:20.369Z,221.46
2023-05-05T11:39:20.397Z,224.69
2023-05-05T11:40:20.361Z,225.88
2023-05-05T11:41:20.356Z,227.20
2023-05-05T11:42:20.380Z,225.54
2023-05-05T11:43:20.520Z,228.15
2023-05-05T11:44:20.431Z,228.24
2023-05-05T11:45:20.510Z,227.55
2023-05-05T11:46:20.510Z,229.70
2023-05-05T11:47:20.487Z,230.11
2023-05-05T11:48:20.520Z,230.99
2023-05-05T11:49:20.551Z,235.36
2023-05-05T11:50:20.581Z,234.55
2023-05-05T11:51:20.601Z,239.00
2023-05-05T11:52:20.632Z,238.63
2023-05-05T11:53:20.656Z,237.15
2023-05-05T11:54:20.681Z,238.59
2023-05-05T11:55:20.696Z,237.45
2023-05-05T11:56:20.722Z,239.70
2023-05-05T11:57:20.753Z,239.49
2023-05-05T11:58:20.801Z,239.77
2023-05-05T11:59:20.858Z,240.36
2023-05-05T12:00:20.828Z,240.38
2023-05-05T12:01:20.846Z,241.41
2023-05-05T12:02:20.897Z,241.08
2023-05-05T12:03:20.988Z,242.81
2023-05-05T12:04:20.918Z,242.88
2023-05-05T12:05:20.949Z,242.78
2023-05-05T12:06:20.979Z,241.22
2023-05-05T12:07:21.019Z,242.14
2023-05-05T12:08:21.007Z,241.61
2023-05-05T12:09:21.043Z,244.45
2023-05-05T12:10:21.065Z,246.42
2023-05-05T12:11:21.078Z,244.53
2023-05-05T12:12:21.108Z,246.36
2023-05-05T12:13:21.310Z,246.87
2023-05-05T12:14:21.159Z,248.67
2023-05-05T12:15:21.302Z,249.47
2023-05-05T12:16:21.216Z,248.86
2023-05-05T12:17:21.221Z,248.18
2023-05-05T12:18:21.412Z,249.18
2023-05-05T12:19:21.269Z,248.42
2023-05-05T12:20:21.322Z,248.85
2023-05-05T12:21:21.328Z,247.61
2023-05-05T12:22:21.333Z,248.53
2023-05-05T12:23:21.359Z,248.34
2023-05-05T12:24:21.385Z,246.83
2023-05-05T12:25:21.437Z,247.77
2023-05-05T12:26:21.492Z,249.15
2023-05-05T12:27:21.543Z,248.52
2023-05-05T12:28:21.610Z,248.38
2023-05-05T12:29:21.641Z,248.33
2023-05-05T12:30:21.707Z,245.85
2023-05-05T12:31:21.769Z,247.39
2023-05-05T12:32:21.741Z,246.32
2023-05-05T12:33:21.817Z,246.21